createdAt,value
2023-08-11T00:00:27.942Z,29.98
2023-08-11T00:02:55.646Z,31.20
2023-08-11T00:05:22.770Z,31.40
2023-08-11T00:07:52.382Z,32.30
2023-08-11T00:10:20.976Z,32.40
2023-08-11T00:12:48.849Z,31.08
2023-08-11T00:15:15.754Z,34.03
2023-08-11T00:17:42.643Z,34.30
2023-08-11T00:20:10.004Z,33.78
2023-08-11T00:22:39.075Z,33.90
2023-08-11T00:25:06.710Z,33.50
2023-08-11T00:27:33.568Z,32.22
2023-08-11T00:30:02.152Z,33.72
2023-08-11T00:32:29.962Z,33.92
2023-08-11T00:34:56.894Z,31.92
2023-08-11T00:37:23.974Z,36.35
2023-08-11T00:39:52.748Z,34.92
2023-08-11T00:42:19.649Z,33.22
2023-08-11T00:44:46.591Z,34.05
2023-08-11T00:47:13.410Z,33.38
2023-08-11T00:49:41.747Z,34.80
2023-08-11T00:52:08.606Z,33.20
2023-08-11T00:54:35.408Z,33.97
2023-08-11T00:57:02.287Z,33.78
2023-08-11T00:59:29.259Z,32.65
2023-08-11T01:03:18.404Z,32.70
2023-08-11T01:05:52.164Z,34.08
2023-08-11T01:08:54.249Z,33.75
2023-08-11T01:11:44.843Z,32.30
2023-08-11T01:14:35.144Z,34.90
2023-08-11T01:17:05.285Z,32.40
2023-08-11T01:19:37.026Z,34.60
2023-08-11T01:22:14.204Z,35.20
2023-08-11T01:24:44.245Z,30.63
2023-08-11T01:27:11.821Z,32.08
2023-08-11T01:29:40.625Z,32.33
2023-08-11T01:32:09.253Z,35.00
2023-08-11T01:34:36.918Z,34.53
2023-08-11T01:37:09.242Z,33.03
2023-08-11T01:39:36.450Z,34.92
2023-08-11T01:42:03.550Z,34.13
2023-08-11T01:44:31.175Z,34.85
2023-08-11T01:46:58.525Z,33.13
2023-08-11T01:49:28.054Z,32.40
2023-08-11T01:51:56.251Z,33.50
2023-08-11T01:54:23.432Z,33.38
2023-08-11T01:56:50.426Z,34.25
2023-08-11T01:59:17.822Z,32.55
2023-08-11T02:01:45.051Z,33.63
2023-08-11T02:04:12.358Z,30.48
2023-08-11T02:06:40.588Z,30.75
2023-08-11T02:09:09.935Z,32.05
2023-08-11T02:11:38.604Z,30.38
2023-08-11T02:14:06.671Z,32.28
2023-08-11T02:16:34.765Z,32.65
2023-08-11T02:19:01.978Z,31.85
2023-08-11T02:21:29.742Z,33.58
2023-08-11T02:23:56.573Z,30.38
2023-08-11T02:26:23.869Z,31.65
2023-08-11T02:28:51.105Z,29.50
2023-08-11T02:31:19.355Z,32.58
2023-08-11T02:33:48.067Z,33.65
2023-08-11T02:36:20.411Z,33.30
2023-08-11T02:38:47.238Z,31.63
2023-08-11T02:41:14.328Z,29.27
2023-08-11T02:43:41.233Z,32.90
2023-08-11T02:46:08.249Z,33.15
2023-08-11T02:48:35.116Z,34.80
2023-08-11T02:51:05.286Z,33.70
2023-08-11T02:53:32.946Z,35.55
2023-08-11T02:56:07.679Z,34.95
2023-08-11T02:58:34.780Z,34.65
2023-08-11T03:01:02.459Z,31.95
2023-08-11T03:03:29.933Z,34.85
2023-08-11T03:05:58.061Z,33.25
2023-08-11T03:08:25.613Z,34.70
2023-08-11T03:10:57.246Z,35.00
2023-08-11T03:13:30.520Z,37.38
2023-08-11T03:15:59.975Z,33.35
2023-08-11T03:18:27.676Z,33.40
2023-08-11T03:21:03.183Z,34.20
2023-08-11T03:23:38.234Z,33.85
2023-08-11T03:26:05.905Z,33.75
2023-08-11T03:28:33.754Z,30.58
2023-08-11T03:31:01.216Z,32.92
2023-08-11T03:33:28.864Z,32.83
2023-08-11T03:36:04.370Z,36.28
2023-08-11T03:38:31.487Z,32.83
2023-08-11T03:40:58.322Z,31.33
2023-08-11T03:43:25.743Z,31.42
2023-08-11T03:45:53.003Z,34.00
2023-08-11T03:48:20.697Z,33.63
2023-08-11T03:50:47.592Z,31.60
2023-08-11T03:53:15.842Z,31.80
2023-08-11T03:55:47.032Z,33.38
2023-08-11T03:58:16.296Z,32.33
2023-08-11T04:00:44.986Z,34.05
2023-08-11T04:03:14.755Z,33.10
2023-08-11T04:05:42.822Z,33.75
2023-08-11T04:08:09.762Z,32.38
2023-08-11T04:10:37.196Z,35.28
2023-08-11T04:13:05.024Z,34.47
2023-08-11T04:15:35.085Z,34.65
2023-08-11T04:18:05.162Z,34.92
2023-08-11T04:20:32.278Z,32.47
2023-08-11T04:23:01.732Z,32.35
2023-08-11T04:25:28.653Z,32.85
2023-08-11T04:27:56.897Z,32.65
2023-08-11T04:30:24.348Z,35.20
2023-08-11T04:32:52.531Z,34.22
2023-08-11T04:35:19.460Z,32.95
2023-08-11T04:37:46.399Z,32.78
2023-08-11T04:40:15.685Z,30.02
2023-08-11T04:42:45.672Z,29.80
2023-08-11T04:45:18.187Z,30.73
2023-08-11T04:47:46.254Z,33.08
2023-08-11T04:50:17.596Z,33.72
2023-08-11T04:52:47.030Z,33.67
2023-08-11T04:55:14.439Z,29.55
2023-08-11T04:57:41.344Z,32.15
2023-08-11T05:00:15.316Z,31.17
2023-08-11T05:05:13.435Z,33.33
2023-08-11T05:07:41.311Z,32.85
2023-08-11T05:10:08.920Z,31.08
2023-08-11T05:12:36.044Z,30.38
2023-08-11T05:15:04.696Z,28.02
2023-08-11T05:17:32.399Z,31.20
2023-08-11T05:19:59.591Z,30.13
2023-08-11T05:22:26.533Z,29.42
2023-08-11T05:24:53.422Z,30.73
2023-08-11T05:27:20.277Z,32.13
2023-08-11T05:29:48.573Z,29.92
2023-08-11T05:32:16.001Z,33.20
2023-08-11T05:34:43.543Z,30.35
2023-08-11T05:37:10.657Z,28.13
2023-08-11T05:39:40.382Z,28.52
2023-08-11T05:42:08.338Z,31.27
2023-08-11T05:44:35.613Z,30.42
2023-08-11T05:47:03.056Z,32.55
2023-08-11T05:49:30.210Z,35.83
2023-08-11T05:51:57.224Z,33.80
2023-08-11T05:54:24.111Z,33.05
2023-08-11T05:56:53.970Z,31.83
2023-08-11T05:59:23.901Z,31.35
2023-08-11T06:01:51.682Z,31.73
2023-08-11T06:04:18.630Z,30.83
2023-08-11T06:06:45.489Z,30.02
2023-08-11T06:09:12.608Z,28.65
2023-08-11T06:11:39.597Z,28.98
2023-08-11T06:14:06.520Z,28.63
2023-08-11T06:16:33.539Z,26.00
2023-08-11T06:19:00.430Z,26.70
2023-08-11T06:21:27.772Z,26.42
2023-08-11T06:23:54.712Z,32.58
2023-08-11T06:26:21.804Z,29.27
2023-08-11T06:28:49.622Z,28.90
2023-08-11T06:31:20.399Z,28.70
2023-08-11T06:33:47.801Z,31.02
2023-08-11T06:36:14.837Z,25.73
2023-08-11T06:38:41.888Z,27.73
2023-08-11T06:41:09.074Z,29.40
2023-08-11T06:43:35.935Z,27.85
2023-08-11T06:46:03.286Z,27.75
2023-08-11T06:48:30.584Z,27.95
2023-08-11T06:50:58.079Z,30.40
2023-08-11T06:53:25.654Z,27.67
2023-08-11T06:55:53.231Z,29.27
2023-08-11T06:58:20.908Z,30.85
2023-08-11T07:00:49.176Z,29.48
2023-08-11T07:03:16.375Z,25.35
2023-08-11T07:05:43.403Z,33.97
2023-08-11T07:08:10.371Z,29.77
2023-08-11T07:10:37.636Z,30.35
2023-08-11T07:13:04.729Z,30.98
2023-08-11T07:15:31.570Z,30.70
2023-08-11T07:17:58.355Z,29.70
2023-08-11T07:20:25.246Z,30.85
2023-08-11T07:22:52.612Z,29.45
2023-08-11T07:25:19.534Z,31.13
2023-08-11T07:27:47.302Z,30.55
2023-08-11T07:30:14.546Z,30.77
2023-08-11T07:32:42.863Z,30.27
2023-08-11T07:35:09.971Z,29.30
2023-08-11T07:37:36.820Z,30.52
2023-08-11T07:40:04.139Z,28.80
2023-08-11T07:42:31.111Z,30.65
2023-08-11T07:44:57.846Z,30.10
2023-08-11T07:47:24.808Z,32.08
2023-08-11T07:49:51.686Z,31.30
2023-08-11T07:52:18.749Z,32.55
2023-08-11T07:54:45.685Z,31.58
2023-08-11T07:57:12.548Z,34.45
2023-08-11T07:59:39.406Z,33.60
2023-08-11T08:02:06.238Z,35.47
2023-08-11T08:04:33.129Z,31.95
2023-08-11T08:07:00.503Z,31.42
2023-08-11T08:09:27.418Z,32.42
2023-08-11T08:11:56.346Z,30.67
2023-08-11T08:14:23.188Z,28.92
2023-08-11T08:16:50.117Z,29.05
2023-08-11T08:19:18.247Z,30.67
2023-08-11T08:21:46.714Z,29.38
2023-08-11T08:24:15.260Z,28.52
2023-08-11T08:26:42.742Z,27.80
2023-08-11T08:29:09.839Z,27.15
2023-08-11T08:31:37.015Z,26.98
2023-08-11T08:34:04.042Z,30.20
2023-08-11T08:36:30.927Z,31.10
2023-08-11T08:38:57.873Z,27.60
2023-08-11T08:41:29.452Z,27.73
2023-08-11T08:43:57.300Z,28.00
2023-08-11T08:46:31.433Z,28.15
2023-08-11T08:49:13.185Z,26.85
2023-08-11T08:51:40.917Z,24.30
2023-08-11T08:54:11.094Z,24.75
2023-08-11T08:56:39.335Z,25.35
2023-08-11T08:59:07.804Z,22.88
2023-08-11T09:01:38.751Z,26.30
2023-08-11T09:04:09.578Z,25.85
2023-08-11T09:06:36.873Z,23.73
2023-08-11T09:09:08.082Z,26.50
2023-08-11T09:14:09.457Z,26.88
2023-08-11T09:16:38.928Z,24.63
2023-08-11T09:19:09.315Z,25.88
2023-08-11T09:21:36.105Z,26.60
2023-08-11T09:24:03.734Z,24.95
2023-08-11T09:26:30.766Z,27.58
2023-08-11T09:28:57.553Z,27.08
2023-08-11T09:31:26.147Z,26.33
2023-08-11T09:33:53.968Z,26.90
2023-08-11T09:36:21.125Z,26.65
2023-08-11T09:38:49.832Z,24.73
2023-08-11T09:41:17.949Z,25.75
2023-08-11T09:43:51.494Z,26.77
2023-08-11T09:46:25.558Z,28.25
2023-08-11T09:48:55.065Z,25.17
2023-08-11T09:51:22.419Z,26.23
2023-08-11T09:53:49.642Z,24.85
2023-08-11T09:56:18.324Z,24.58
2023-08-11T09:58:47.015Z,24.13
2023-08-11T10:01:20.680Z,26.45
2023-08-11T10:03:51.276Z,28.38
2023-08-11T10:06:22.814Z,27.30
2023-08-11T10:08:51.582Z,25.85
2023-08-11T10:11:21.268Z,25.33
2023-08-11T10:13:48.538Z,25.40
2023-08-11T10:16:15.544Z,23.08
2023-08-11T10:18:44.085Z,23.98
2023-08-11T10:21:11.517Z,22.65
2023-08-11T10:23:38.956Z,23.05
2023-08-11T10:26:06.132Z,23.67
2023-08-11T10:28:33.442Z,24.15
2023-08-11T10:31:02.393Z,25.13
2023-08-11T10:33:33.061Z,24.42
2023-08-11T10:36:01.985Z,23.75
2023-08-11T10:38:29.587Z,24.20
2023-08-11T10:41:09.140Z,21.05
2023-08-11T10:43:42.780Z,22.48
2023-08-11T10:46:28.660Z,23.45
2023-08-11T10:49:22.947Z,23.02
2023-08-11T10:51:52.495Z,21.88
2023-08-11T10:54:25.423Z,22.50
2023-08-11T10:56:53.535Z,22.77
2023-08-11T10:59:25.847Z,23.33
2023-08-11T11:01:55.016Z,25.30
2023-08-11T11:04:31.373Z,26.15
2023-08-11T11:07:00.725Z,23.65
2023-08-11T11:09:29.235Z,25.52
2023-08-11T11:11:56.924Z,24.13
2023-08-11T11:14:26.849Z,23.58
2023-08-11T11:16:59.901Z,25.55
2023-08-11T11:19:27.447Z,26.25
2023-08-11T11:21:54.424Z,24.52
2023-08-11T11:24:21.603Z,23.77
2023-08-11T11:26:50.650Z,24.83
2023-08-11T11:29:22.452Z,23.50
2023-08-11T11:31:49.284Z,26.98
2023-08-11T11:34:16.094Z,25.45
2023-08-11T11:36:43.161Z,27.27
2023-08-11T11:39:11.001Z,26.15
2023-08-11T11:41:37.822Z,24.60
2023-08-11T11:44:04.951Z,25.42
2023-08-11T11:46:33.799Z,26.17
2023-08-11T11:49:09.526Z,24.65
2023-08-11T11:51:43.296Z,23.23
2023-08-11T11:54:10.102Z,24.42
2023-08-11T11:56:39.781Z,23.00
2023-08-11T11:59:09.095Z,25.85
2023-08-11T12:01:39.380Z,23.98
2023-08-11T12:06:39.019Z,24.70
2023-08-11T12:09:30.390Z,23.55
2023-08-11T12:12:26.927Z,23.33
2023-08-11T12:15:22.580Z,24.80
2023-08-11T12:18:44.283Z,24.33
2023-08-11T12:21:12.308Z,22.42
2023-08-11T12:23:59.305Z,24.17
2023-08-11T12:26:32.386Z,26.10
2023-08-11T12:29:05.901Z,23.88
2023-08-11T12:31:37.331Z,25.05
2023-08-11T12:36:31.554Z,24.95
2023-08-11T12:38:58.597Z,24.67
2023-08-11T12:41:25.485Z,25.17
2023-08-11T12:43:52.491Z,25.67
2023-08-11T12:46:19.487Z,26.98
2023-08-11T12:48:46.514Z,24.35
2023-08-11T12:51:13.304Z,26.85
2023-08-11T12:53:43.013Z,20.85
2023-08-11T12:56:09.909Z,25.77
2023-08-11T12:58:36.852Z,23.08
2023-08-11T13:01:08.055Z,24.73
2023-08-11T13:03:38.990Z,25.30
2023-08-11T13:06:08.776Z,26.20
2023-08-11T13:08:36.572Z,25.38
2023-08-11T13:11:04.516Z,23.45
2023-08-11T13:13:32.507Z,25.52
2023-08-11T13:16:04.833Z,25.23
2023-08-11T13:18:31.880Z,25.98
2023-08-11T13:20:59.065Z,24.15
2023-08-11T13:23:32.828Z,21.70
2023-08-11T13:26:00.243Z,23.05
2023-08-11T13:28:28.011Z,23.15
2023-08-11T13:30:56.811Z,22.35
2023-08-11T13:33:24.801Z,20.52
2023-08-11T13:35:53.088Z,22.35
2023-08-11T13:38:25.272Z,23.42
2023-08-11T13:40:54.225Z,23.50
2023-08-11T13:43:23.452Z,24.90
2023-08-11T13:45:50.827Z,24.13
2023-08-11T13:48:18.243Z,25.20
2023-08-11T13:50:46.144Z,23.90
2023-08-11T13:53:15.850Z,25.30
2023-08-11T13:55:44.139Z,23.70
2023-08-11T13:58:11.986Z,25.90
2023-08-11T14:00:39.363Z,23.98
2023-08-11T14:03:06.468Z,23.67
2023-08-11T14:05:33.779Z,25.92
2023-08-11T14:08:00.646Z,25.85
2023-08-11T14:10:27.527Z,28.15
2023-08-11T14:12:54.802Z,27.20
2023-08-11T14:15:21.711Z,28.95
2023-08-11T14:17:49.493Z,24.50
2023-08-11T14:20:18.661Z,25.30
2023-08-11T14:22:45.539Z,24.88
2023-08-11T14:25:15.927Z,23.08
2023-08-11T14:27:43.261Z,20.10
2023-08-11T14:30:10.893Z,23.08
2023-08-11T14:32:38.260Z,20.98
2023-08-11T14:35:05.910Z,22.90
2023-08-11T14:37:32.774Z,22.85
2023-08-11T14:39:59.640Z,24.33
2023-08-11T14:42:28.942Z,24.73
2023-08-11T14:44:55.875Z,23.55
2023-08-11T14:47:23.099Z,26.33
2023-08-11T14:50:00.355Z,22.27
2023-08-11T14:52:29.271Z,25.40
2023-08-11T14:55:02.950Z,22.65
2023-08-11T14:57:30.594Z,26.27
2023-08-11T15:00:02.546Z,22.00
2023-08-11T15:02:30.890Z,25.95
2023-08-11T15:04:58.002Z,22.15
2023-08-11T15:07:27.107Z,20.95
2023-08-11T15:09:58.147Z,20.08
2023-08-11T15:12:25.081Z,27.45
2023-08-11T15:14:51.927Z,22.33
2023-08-11T15:17:18.682Z,25.42
2023-08-11T15:19:45.566Z,23.15
2023-08-11T15:22:12.690Z,24.75
2023-08-11T15:24:39.747Z,22.35
2023-08-11T15:27:06.704Z,22.70
2023-08-11T15:29:33.541Z,24.63
2023-08-11T15:32:00.522Z,23.63
2023-08-11T15:34:27.333Z,23.33
2023-08-11T15:36:54.165Z,24.35
2023-08-11T15:39:21.044Z,22.30
2023-08-11T15:41:47.859Z,25.02
2023-08-11T15:44:14.845Z,21.08
2023-08-11T15:46:42.100Z,24.58
2023-08-11T15:49:08.916Z,22.92
2023-08-11T15:51:35.774Z,25.77
2023-08-11T15:54:02.778Z,24.50
2023-08-11T15:56:29.592Z,26.13
2023-08-11T15:58:58.212Z,24.88
2023-08-11T16:01:25.120Z,24.77
2023-08-11T16:03:53.607Z,23.67
2023-08-11T16:06:20.533Z,26.63
2023-08-11T16:08:47.365Z,23.95
2023-08-11T16:11:14.156Z,24.63
2023-08-11T16:13:42.454Z,22.95
2023-08-11T16:16:09.911Z,24.60
2023-08-11T16:18:36.811Z,24.27
2023-08-11T16:21:04.515Z,27.70
2023-08-11T16:23:31.454Z,29.38
2023-08-11T16:25:59.034Z,25.02
2023-08-11T16:28:25.966Z,29.90
2023-08-11T16:30:53.971Z,24.98
2023-08-11T16:33:21.527Z,24.65
2023-08-11T16:35:49.112Z,22.80
2023-08-11T16:38:15.976Z,26.52
2023-08-11T16:40:42.757Z,25.38
2023-08-11T16:43:10.571Z,25.83
2023-08-11T16:45:37.878Z,27.92
2023-08-11T16:48:07.627Z,25.38
2023-08-11T16:50:34.641Z,26.77
2023-08-11T16:53:01.476Z,24.13
2023-08-11T16:55:31.353Z,28.45
2023-08-11T17:01:00.204Z,25.23
2023-08-11T17:03:27.146Z,23.73
2023-08-11T17:05:54.118Z,25.70
2023-08-11T17:08:21.017Z,27.20
2023-08-11T17:10:47.990Z,25.73
2023-08-11T17:13:14.964Z,25.70
2023-08-11T17:15:41.797Z,26.33
2023-08-11T17:18:08.693Z,25.02
2023-08-11T17:20:36.149Z,27.75
2023-08-11T17:23:04.395Z,24.85
2023-08-11T17:25:31.191Z,26.92
2023-08-11T17:27:57.948Z,25.80
2023-08-11T17:30:24.776Z,29.98
2023-08-11T17:32:51.634Z,25.90
2023-08-11T17:35:18.651Z,27.75
2023-08-11T17:37:45.483Z,24.05
2023-08-11T17:40:12.762Z,27.17
2023-08-11T17:42:41.428Z,27.80
2023-08-11T17:45:09.856Z,27.70
2023-08-11T17:47:36.979Z,28.55
2023-08-11T17:50:04.999Z,27.00
2023-08-11T17:52:31.844Z,28.23
2023-08-11T17:54:58.722Z,28.15
2023-08-11T17:57:26.292Z,29.55
2023-08-11T17:59:53.297Z,29.70
2023-08-11T18:02:20.135Z,29.33
2023-08-11T18:04:47.452Z,28.10
2023-08-11T18:07:17.388Z,26.73
2023-08-11T18:09:44.842Z,30.83
2023-08-11T18:12:12.180Z,29.75
2023-08-11T18:14:44.225Z,28.80
2023-08-11T18:17:11.144Z,27.60
2023-08-11T18:19:38.184Z,30.25
2023-08-11T18:22:05.040Z,31.08
2023-08-11T18:24:32.133Z,30.83
2023-08-11T18:26:58.973Z,28.17
2023-08-11T18:29:25.891Z,31.33
2023-08-11T18:31:52.698Z,27.90
2023-08-11T18:34:19.522Z,28.13
2023-08-11T18:36:46.291Z,28.63
2023-08-11T18:39:13.950Z,30.10
2023-08-11T18:41:40.716Z,27.73
2023-08-11T18:44:08.283Z,28.05
2023-08-11T18:46:35.341Z,29.38
2023-08-11T18:49:05.558Z,29.23
2023-08-11T18:51:33.124Z,29.70
2023-08-11T18:54:00.131Z,30.23
2023-08-11T18:56:27.183Z,29.75
2023-08-11T18:58:53.950Z,26.88
2023-08-11T19:01:20.827Z,28.83
2023-08-11T19:03:47.808Z,30.35
2023-08-11T19:06:14.851Z,30.33
2023-08-11T19:08:42.505Z,30.05
2023-08-11T19:11:09.854Z,32.00
2023-08-11T19:13:36.683Z,28.75
2023-08-11T19:16:03.832Z,31.27
2023-08-11T19:18:30.682Z,30.33
2023-08-11T19:20:58.146Z,27.33
2023-08-11T19:23:25.183Z,26.85
2023-08-11T19:25:52.135Z,27.38
2023-08-11T19:28:19.180Z,24.73
2023-08-11T19:30:46.182Z,29.10
2023-08-11T19:33:13.055Z,25.35
2023-08-11T19:35:40.027Z,31.25
2023-08-11T19:38:07.106Z,28.80
2023-08-11T19:40:34.071Z,32.20
2023-08-11T19:43:02.032Z,28.30
2023-08-11T19:45:29.309Z,30.17
2023-08-11T19:47:56.160Z,29.63
2023-08-11T19:50:23.213Z,31.90
2023-08-11T19:52:50.262Z,31.58
2023-08-11T19:55:17.591Z,26.48
2023-08-11T19:57:46.076Z,31.58
2023-08-11T20:00:14.317Z,28.27
2023-08-11T20:02:41.547Z,31.02
2023-08-11T20:05:08.638Z,27.27
2023-08-11T20:07:35.515Z,31.02
2023-08-11T20:10:02.524Z,25.80
2023-08-11T20:12:29.366Z,34.20
2023-08-11T20:14:56.538Z,27.63
2023-08-11T20:17:23.411Z,29.52
2023-08-11T20:19:50.720Z,30.23
2023-08-11T20:22:17.688Z,30.58
2023-08-11T20:24:44.558Z,31.05
2023-08-11T20:27:11.718Z,27.67
2023-08-11T20:29:38.823Z,28.73
2023-08-11T20:32:06.005Z,30.02
2023-08-11T20:34:33.097Z,28.25
2023-08-11T20:36:59.954Z,29.48
2023-08-11T20:39:27.520Z,31.45
2023-08-11T20:41:56.251Z,30.60
2023-08-11T20:44:24.226Z,28.40
2023-08-11T20:46:51.858Z,27.45
2023-08-11T20:49:18.660Z,29.52
2023-08-11T20:51:45.573Z,24.58
2023-08-11T20:54:12.770Z,27.95
2023-08-11T20:56:39.779Z,27.55
2023-08-11T20:59:06.693Z,35.20
2023-08-11T21:01:33.690Z,32.75
2023-08-11T21:04:00.646Z,34.17
2023-08-11T21:06:31.326Z,32.83
2023-08-11T21:08:58.261Z,32.03
2023-08-11T21:11:25.355Z,30.77
2023-08-11T21:13:55.564Z,34.70
2023-08-11T21:16:22.649Z,34.35
2023-08-11T21:18:50.234Z,35.38
2023-08-11T21:21:17.255Z,35.92
2023-08-11T21:23:44.177Z,36.35
2023-08-11T21:26:10.993Z,36.55
2023-08-11T21:28:37.846Z,32.72
2023-08-11T21:31:17.559Z,36.72
2023-08-11T21:33:45.748Z,36.30
2023-08-11T21:36:12.788Z,37.88
2023-08-11T21:38:39.544Z,37.58
2023-08-11T21:41:06.342Z,38.58
2023-08-11T21:43:33.347Z,37.65
2023-08-11T21:46:00.191Z,38.42
2023-08-11T21:48:27.014Z,37.53
2023-08-11T21:50:53.875Z,37.33
2023-08-11T21:53:23.714Z,34.75
2023-08-11T21:55:51.754Z,38.72
2023-08-11T21:58:18.586Z,37.25
2023-08-11T22:00:45.519Z,38.08
2023-08-11T22:03:12.498Z,37.42
2023-08-11T22:05:39.653Z,39.70
2023-08-11T22:08:06.608Z,39.85
2023-08-11T22:10:33.512Z,40.10
2023-08-11T22:13:00.390Z,38.97
2023-08-11T22:15:27.233Z,41.92
2023-08-11T22:17:54.841Z,37.25
2023-08-11T22:20:22.230Z,40.95
2023-08-11T22:22:49.208Z,42.00
2023-08-11T22:25:16.285Z,36.72
2023-08-11T22:27:43.370Z,37.65
2023-08-11T22:30:10.781Z,40.42
2023-08-11T22:32:37.827Z,39.15
2023-08-11T22:35:05.675Z,34.22
2023-08-11T22:37:33.170Z,36.72
2023-08-11T22:40:00.137Z,34.78
2023-08-11T22:42:31.603Z,37.17
2023-08-11T22:44:58.613Z,37.72
2023-08-11T22:47:25.560Z,38.80
2023-08-11T22:49:52.546Z,37.83
2023-08-11T22:52:20.790Z,38.75
2023-08-11T22:54:47.919Z,36.28
2023-08-11T22:57:14.964Z,37.55
2023-08-11T22:59:41.895Z,35.47
2023-08-11T23:02:09.733Z,37.17
2023-08-11T23:04:36.710Z,37.08
2023-08-11T23:07:04.268Z,39.95
2023-08-11T23:09:31.224Z,40.25
2023-08-11T23:11:58.203Z,38.15
2023-08-11T23:14:25.183Z,39.35
2023-08-11T23:16:52.277Z,40.72
2023-08-11T23:19:19.252Z,40.80
2023-08-11T23:21:46.111Z,40.50
2023-08-11T23:24:13.133Z,40.53
2023-08-11T23:26:39.985Z,38.97
2023-08-11T23:29:06.920Z,38.90
2023-08-11T23:31:34.158Z,40.72
2023-08-11T23:34:01.145Z,39.45
2023-08-11T23:36:27.963Z,41.47
2023-08-11T23:38:54.782Z,38.35
2023-08-11T23:41:29.528Z,36.38
2023-08-11T23:43:57.278Z,38.33
2023-08-11T23:46:24.478Z,40.65
2023-08-11T23:48:51.371Z,37.53
2023-08-11T23:51:19.280Z,41.42
2023-08-11T23:53:46.149Z,39.50
2023-08-11T23:56:13.459Z,41.55
2023-08-11T23:58:40.364Z,40.58
